Airfield :
LOGIN :

Register | Disclaimer

   EN    FR    IT 

 










Legend :    VFR   Marginal VFR   IFR   Intensive IFR   Very Intensive IFR
Visi :
Ceiling :
>= 8 km
>= 3000ft
5 to 8 km
1000 to 3000 ft
1500m to 5 km
500 to 1000 ft
800 to 1500m
200 to 500 ft
< 800m
< 200 ft
Symbols :   Thunderstorms  Fog  Heavy snow  Heavy precipitations  Wind > 20 kt
SIGMETs :     Misc.  Thunderstorms  Icing  Turbulence  Mountain Waves  Volcanic Ashes






- Airport Elevation : 538 ft
- IATA code : TNF


LFPN - Toussus Le Noble

CURRENT METAR :
  • 261830Z AUTO 23010KT 9999 FEW048 SCT056 OVC170 10/06 Q1005 TEMPO 22015G25KT 4000 SHRA SCT025CB BKN035

EXPIRED METARs :
  • 261800Z AUTO 23006KT 9999 FEW034 BKN043 OVC050 10/07 Q1005 TEMPO 22015G25KT 4000 SHRA SCT025CB BKN035
  • 261730Z AUTO 25006KT 9999 -RA BKN033 BKN042 BKN049 11/07 Q1005 TEMPO 22015G28KT 4000 SHRA SCT025CB BKN035
  • 261700Z AUTO 23007KT 9999 SCT038 BKN054 BKN190 11/06 Q1005 TEMPO 22015G28KT 4000 SHRA SCT025CB BKN035
  • 261630Z AUTO 24009KT 9999 FEW033 SCT190 11/06 Q1004 TEMPO 22015G28KT 4000 SHRA SCT025CB BKN035
  • 261600Z AUTO 24010KT 9999 FEW034 SCT062 12/06 Q1004 TEMPO 22015G28KT 4000 SHRA SCT025CB BKN035

TAF TAF LFPN
Valid from the 26 at 18:00 until the 27 at 03:00 UTC


261700Z 2618/2703 24010KT 9999 SCT035
TEMPO 2618/2620 22015G25KT 4000 SHRA SCT025CB BKN035
TEMPO 2700/2703 BKN007
ATIS : +33 1 39 56 54 70



MET'MAP, your aeronautical weather chart ! - Copyright ORBIFLY December 2007 - Disclaimer

ORBIFLY MET'MAP TEAM :

Programming & Development : Alexandra Zaïnal
Concept & original design : Baudouin d'Aumeries
Assistance for programming : Marc-Olivier Méhu
Technical & hardware support : Manuel Goepfert

Contact : metmap@orbifly.com




SOURCES & CREDITS :

   NOAA